Terminal Aerodrome Forecast
Issued by NWS

Home | Current Version | Previous Version | Text Only | Print | Product List | Glossary On
Versions: 1 2 3 4 5 6 7 8 9 10 11 12 13 14 15 16 17 18 19 20 21 22 23 24 25 26 27 28
831
FTUS43 KDLH 262112 AAB
TAFBRD
TAF AMD
KBRD 262112Z 2621/2718 02005KT P6SM SCT014 OVC030
     FM270200 00000KT P6SM BKN060
     FM270600 00000KT 5SM BR BKN025
     FM271500 04007KT P6SM BKN040=

USA.gov is the U.S. government's official web portal to all federal, state and local government web resources and services.